createdAt,value
2022-12-14T00:00:12.794Z,100295.81
2022-12-14T00:05:16.151Z,100281.69
2022-12-14T00:10:18.216Z,100285.72
2022-12-14T00:15:20.336Z,100281.09
2022-12-14T00:20:22.710Z,100275.63
2022-12-14T00:25:25.303Z,100264.34
2022-12-14T00:30:27.472Z,100283.25
2022-12-14T00:35:30.110Z,100285.69
2022-12-14T00:40:32.238Z,100292.81
2022-12-14T00:45:34.311Z,100278.72
2022-12-14T00:50:36.459Z,100275.97
2022-12-14T00:55:39.768Z,100305.91
2022-12-14T01:00:42.516Z,100300.81
2022-12-14T01:05:49.225Z,100305.53
2022-12-14T01:10:52.471Z,100310.44
2022-12-14T01:15:54.579Z,100286.91
2022-12-14T01:21:06.469Z,100318.50
2022-12-14T01:26:08.703Z,100326.62
2022-12-14T01:31:16.973Z,100318.91
2022-12-14T01:36:21.592Z,100295.84
2022-12-14T01:41:38.396Z,100312.88
2022-12-14T01:47:03.350Z,100293.03
2022-12-14T01:52:30.631Z,100294.44
2022-12-14T01:58:03.039Z,100296.91
2022-12-14T02:03:05.213Z,100277.81
2022-12-14T02:08:08.754Z,100271.16
2022-12-14T02:13:28.430Z,100268.66
2022-12-14T02:18:32.080Z,100266.00
2022-12-14T02:23:50.145Z,100281.28
2022-12-14T02:29:29.741Z,100270.19
2022-12-14T02:34:48.148Z,100266.09
2022-12-14T02:39:52.944Z,100260.72
2022-12-14T02:45:09.720Z,100247.91
2022-12-14T02:50:44.055Z,100237.44
2022-12-14T02:55:52.027Z,100237.28
2022-12-14T03:00:56.433Z,100245.28
2022-12-14T03:06:03.694Z,100248.16
2022-12-14T03:11:07.137Z,100245.31
2022-12-14T03:16:17.096Z,100214.69
2022-12-14T03:21:24.053Z,100207.72
2022-12-14T03:26:47.333Z,100202.41
2022-12-14T03:32:02.101Z,100227.75
2022-12-14T03:37:29.021Z,100211.25
2022-12-14T03:42:40.238Z,100218.09
2022-12-14T03:48:08.049Z,100199.25
2022-12-14T03:53:16.021Z,100175.59
2022-12-14T03:58:40.494Z,100188.91
2022-12-14T04:04:14.925Z,100183.53
2022-12-14T04:09:28.140Z,100172.97
2022-12-14T04:14:53.971Z,100183.56
2022-12-14T04:20:11.031Z,100160.94
2022-12-14T04:25:38.641Z,100170.09
2022-12-14T04:30:41.316Z,100179.03
2022-12-14T04:35:43.990Z,100167.62
2022-12-14T04:40:51.045Z,100158.91
2022-12-14T04:46:02.303Z,100142.53
2022-12-14T04:51:31.719Z,100149.56
2022-12-14T04:56:41.085Z,100149.56
2022-12-14T05:02:05.065Z,100120.53
2022-12-14T05:07:36.032Z,100140.47
2022-12-14T05:12:50.440Z,100105.59
2022-12-14T05:17:53.290Z,100122.22
2022-12-14T05:22:55.364Z,100132.37
2022-12-14T05:27:57.446Z,100137.97
2022-12-14T05:32:59.573Z,100108.09
2022-12-14T05:38:01.729Z,100096.06
2022-12-14T05:43:07.786Z,100101.87
2022-12-14T05:48:09.920Z,100115.97
2022-12-14T05:53:11.982Z,100117.66
2022-12-14T05:58:14.096Z,100117.66
2022-12-14T06:03:16.236Z,100113.91
2022-12-14T06:08:18.353Z,100080.72
2022-12-14T06:13:20.557Z,100090.88
2022-12-14T06:18:24.284Z,100072.00
2022-12-14T06:23:26.921Z,100085.47
2022-12-14T06:28:29.290Z,100088.59
2022-12-14T06:33:33.268Z,100087.53
2022-12-14T06:38:35.725Z,100073.66
2022-12-14T06:43:38.491Z,100085.06
2022-12-14T06:48:41.842Z,100080.09
2022-12-14T06:53:43.934Z,100070.09
2022-12-14T06:58:46.661Z,100062.38
2022-12-14T07:03:55.106Z,100053.91
2022-12-14T07:08:58.944Z,100061.97
2022-12-14T07:14:03.233Z,100050.59
2022-12-14T07:19:05.536Z,100048.28
2022-12-14T07:24:08.848Z,100030.37
2022-12-14T07:29:12.179Z,100013.63
2022-12-14T07:34:14.490Z,100041.19
2022-12-14T07:39:17.101Z,100027.53
2022-12-14T07:44:19.218Z,100039.91
2022-12-14T07:49:21.790Z,100051.28
2022-12-14T07:54:25.059Z,100047.59
2022-12-14T07:59:27.155Z,100077.25
2022-12-14T08:04:29.328Z,100061.00
2022-12-14T08:09:31.546Z,100080.31
2022-12-14T08:14:33.809Z,100047.31
2022-12-14T08:19:36.424Z,100066.91
2022-12-14T08:24:38.549Z,100050.50
2022-12-14T08:29:40.623Z,100033.22
2022-12-14T08:34:42.778Z,100046.87
2022-12-14T08:39:45.108Z,100063.22
2022-12-14T08:44:51.784Z,100044.16
2022-12-14T08:49:53.999Z,100059.12
2022-12-14T08:54:56.068Z,100044.16
2022-12-14T09:00:01.676Z,100023.19
2022-12-14T09:05:04.772Z,100009.25
2022-12-14T09:10:08.085Z,100011.47
2022-12-14T09:15:10.908Z,100015.84
2022-12-14T09:20:14.270Z,100007.94
2022-12-14T09:25:16.509Z,100013.78
2022-12-14T09:30:24.801Z,100013.41
2022-12-14T09:35:28.622Z,100010.19
2022-12-14T09:40:33.132Z,100007.81
2022-12-14T09:45:48.807Z,99989.00
2022-12-14T09:50:53.319Z,99981.09
2022-12-14T09:55:58.116Z,99945.34
2022-12-14T10:01:24.667Z,99956.47
2022-12-14T10:06:27.085Z,99947.09
2022-12-14T10:11:59.942Z,99946.16
2022-12-14T10:17:17.418Z,99954.69
2022-12-14T10:22:25.854Z,99955.87
2022-12-14T10:27:38.124Z,99956.00
2022-12-14T10:33:14.839Z,99932.47
2022-12-14T10:38:46.211Z,99914.22
2022-12-14T10:44:14.293Z,99908.25
2022-12-14T10:49:27.166Z,99881.97
2022-12-14T10:54:54.107Z,99892.19
2022-12-14T11:00:09.514Z,99875.03
2022-12-14T11:05:24.101Z,99876.38
2022-12-14T11:10:32.562Z,99882.53
2022-12-14T11:15:41.457Z,99873.25
2022-12-14T11:21:01.536Z,99865.81
2022-12-14T11:26:07.277Z,99868.22
2022-12-14T11:31:20.049Z,99853.66
2022-12-14T11:36:24.984Z,99840.97
2022-12-14T11:41:37.616Z,99847.66
2022-12-14T11:46:52.496Z,99840.66
2022-12-14T11:52:00.493Z,99809.44
2022-12-14T11:57:04.251Z,99797.13
2022-12-14T12:02:18.700Z,99795.22
2022-12-14T12:07:50.258Z,99809.81
2022-12-14T12:12:54.633Z,99794.13
2022-12-14T12:18:03.447Z,99793.66
2022-12-14T12:23:15.970Z,99780.75
2022-12-14T12:28:33.090Z,99782.75
2022-12-14T12:33:44.401Z,99770.63
2022-12-14T12:39:12.635Z,99743.53
2022-12-14T12:44:17.803Z,99743.44
2022-12-14T12:49:19.942Z,99743.88
2022-12-14T12:54:27.846Z,99737.19
2022-12-14T12:59:32.238Z,99741.78
2022-12-14T13:04:39.342Z,99723.41
2022-12-14T13:10:05.634Z,99719.63
2022-12-14T13:15:23.152Z,99726.13
2022-12-14T13:20:30.497Z,99719.50
2022-12-14T13:25:38.298Z,99720.44
2022-12-14T13:30:54.178Z,99707.94
2022-12-14T13:36:33.841Z,99704.41
2022-12-14T13:42:01.110Z,99697.13
2022-12-14T13:47:06.384Z,99689.13
2022-12-14T13:52:43.051Z,99686.66
2022-12-14T13:57:45.429Z,99688.53
2022-12-14T14:02:53.786Z,99672.63
2022-12-14T14:08:02.817Z,99655.09
2022-12-14T14:13:32.272Z,99649.06
2022-12-14T14:18:37.445Z,99656.59
2022-12-14T14:23:58.895Z,99651.78
2022-12-14T14:29:25.294Z,99657.16
2022-12-14T14:34:36.606Z,99624.91
2022-12-14T14:39:57.635Z,99591.91
2022-12-14T14:45:06.190Z,99621.13
2022-12-14T14:50:21.821Z,99611.44
2022-12-14T15:01:12.210Z,99627.66
2022-12-14T15:06:17.112Z,99626.94
2022-12-14T15:11:23.220Z,99633.09
2022-12-14T15:16:31.006Z,99630.34
2022-12-14T15:21:33.153Z,99625.19
2022-12-14T15:26:35.515Z,99622.00
2022-12-14T15:31:40.861Z,99624.06
2022-12-14T15:36:43.964Z,99614.06
2022-12-14T15:41:46.106Z,99611.34
2022-12-14T15:46:55.277Z,99619.53
2022-12-14T15:51:59.152Z,99619.19
2022-12-14T15:57:02.020Z,99596.81
2022-12-14T16:02:15.337Z,99627.19
2022-12-14T16:07:24.768Z,99627.09
2022-12-14T16:12:42.767Z,99615.59
2022-12-14T16:17:47.019Z,99605.25
2022-12-14T16:23:22.248Z,99590.28
2022-12-14T16:28:35.700Z,99567.97
2022-12-14T16:33:40.231Z,99564.81
2022-12-14T16:38:56.565Z,99539.38
2022-12-14T16:44:00.724Z,99525.31
2022-12-14T16:49:30.920Z,99527.16
2022-12-14T16:54:34.443Z,99539.25
2022-12-14T16:59:44.392Z,99533.41
2022-12-14T17:04:46.698Z,99538.22
2022-12-14T17:09:48.772Z,99525.25
2022-12-14T17:14:54.517Z,99529.59
2022-12-14T17:19:56.749Z,99539.81
2022-12-14T17:25:00.515Z,99528.03
2022-12-14T17:30:02.626Z,99543.69
2022-12-14T17:35:05.184Z,99556.63
2022-12-14T17:40:07.801Z,99543.69
2022-12-14T17:45:20.610Z,99540.75
2022-12-14T17:50:22.950Z,99564.97
2022-12-14T17:55:28.393Z,99563.22
2022-12-14T18:00:50.187Z,99549.69
2022-12-14T18:05:53.289Z,99552.66
2022-12-14T18:11:02.580Z,99524.53
2022-12-14T18:16:05.313Z,99535.84
2022-12-14T18:21:16.198Z,99531.84
2022-12-14T18:26:21.186Z,99518.44
2022-12-14T18:31:36.107Z,99512.19
2022-12-14T18:36:39.412Z,99530.66
2022-12-14T18:41:41.600Z,99505.59
2022-12-14T18:46:43.813Z,99475.84
2022-12-14T18:51:52.781Z,99450.56
2022-12-14T18:56:54.900Z,99500.09
2022-12-14T19:01:57.101Z,99499.84
2022-12-14T19:07:00.318Z,99492.91
2022-12-14T19:12:05.408Z,99495.03
2022-12-14T19:17:07.596Z,99501.75
2022-12-14T19:22:09.885Z,99488.59
2022-12-14T19:27:11.947Z,99480.59
2022-12-14T19:32:15.311Z,99477.28
2022-12-14T19:37:22.771Z,99469.88
2022-12-14T19:42:25.583Z,99476.72
2022-12-14T19:47:29.103Z,99491.28
2022-12-14T19:52:31.520Z,99481.75
2022-12-14T19:57:33.738Z,99478.22
2022-12-14T20:02:36.428Z,99460.00
2022-12-14T20:07:43.886Z,99459.03
2022-12-14T20:12:46.316Z,99448.44
2022-12-14T20:17:48.449Z,99452.09
2022-12-14T20:22:50.582Z,99420.72
2022-12-14T20:27:52.729Z,99433.28
2022-12-14T20:32:54.797Z,99434.34
2022-12-14T20:37:56.855Z,99431.78
2022-12-14T20:42:58.941Z,99414.84
2022-12-14T20:48:01.268Z,99402.03
2022-12-14T20:53:09.074Z,99416.25
2022-12-14T20:58:11.595Z,99393.91
2022-12-14T21:03:14.019Z,99413.44
2022-12-14T21:08:16.687Z,99425.56
2022-12-14T21:13:18.914Z,99426.97
2022-12-14T21:18:21.147Z,99421.31
2022-12-14T21:23:23.292Z,99425.06
2022-12-14T21:28:31.850Z,99446.81
2022-12-14T21:33:37.697Z,99434.47
2022-12-14T21:38:40.370Z,99431.44
2022-12-14T21:43:42.575Z,99414.37
2022-12-14T21:48:44.808Z,99421.53
2022-12-14T21:54:01.294Z,99429.75
2022-12-14T21:59:03.498Z,99435.44
2022-12-14T22:04:06.054Z,99447.53
2022-12-14T22:09:08.201Z,99434.22
2022-12-14T22:14:24.948Z,99424.63
2022-12-14T22:19:27.886Z,99448.00
2022-12-14T22:24:30.263Z,99445.88
2022-12-14T22:29:35.621Z,99474.56
2022-12-14T22:34:37.990Z,99477.28
2022-12-14T22:39:40.099Z,99454.81
2022-12-14T22:44:42.234Z,99476.13
2022-12-14T22:49:44.493Z,99458.47
2022-12-14T22:54:49.822Z,99460.59
2022-12-14T22:59:57.429Z,99468.81
2022-12-14T23:04:59.567Z,99461.41
2022-12-14T23:10:20.764Z,99458.34
2022-12-14T23:15:41.469Z,99447.19
2022-12-14T23:21:02.246Z,99447.19
2022-12-14T23:26:23.474Z,99461.75
2022-12-14T23:31:44.123Z,99435.16
2022-12-14T23:37:05.019Z,99458.94
2022-12-14T23:42:25.755Z,99459.50
2022-12-14T23:47:46.183Z,99471.75
2022-12-14T23:53:10.655Z,99486.00
2022-12-14T23:58:31.267Z,99484.78
